Aviation Digital Data Service (ADDS)

Output produced by METARs form (0203 UTC 24 April 2014)
found at http://aviationweather.gov/adds/metars/
 
KSAN 232332Z 2400/2506 25010KT P6SM SCT250 
     FM240300 VRB04KT P6SM SCT018 
     FM242100 23008KT P6SM FEW020 
     FM250200 VRB05KT P6SM BKN010